Time;durP1;ratioP1;P1;durP2;ratioP2;P2;SDS_P1;SDS_P2;PMS_P1;PMS_P2;Temp;Humidity;BMP_temperature;BMP_pressure;BME280_temperature;BME280_humidity;BME280_pressure;Samples;Min_cycle;Max_cycle;Signal;HPM_P1;HPM_P2
2023/06/06 00:02:12;;;;;;;0.00;0.00;;;;;;;16.37;68.12;98544.41;4961297;28;20257;-63
2023/06/06 00:04:49;;;;;;;0.00;0.00;;;;;;;16.35;68.72;98541.94;4944277;28;20317;-63
2023/06/06 00:07:16;;;;;;;0.00;0.00;;;;;;;16.28;68.82;98543.69;4947068;28;20740;-63
2023/06/06 00:09:45;;;;;;;0.00;0.00;;;;;;;16.26;69.24;98550.97;4944074;28;20230;-63
2023/06/06 00:12:12;;;;;;;0.00;0.00;;;;;;;16.33;69.27;98545.78;4947008;28;20725;-63
2023/06/06 00:14:45;;;;;;;0.00;0.00;;;;;;;16.26;64.33;98556.25;4944114;28;20220;-63
2023/06/06 00:17:12;;;;;;;0.00;0.00;;;;;;;16.18;65.40;98551.94;4947169;28;20241;-63
2023/06/06 00:19:47;;;;;;;0.00;0.00;;;;;;;16.03;64.58;98559.88;4944352;28;20256;-63
2023/06/06 00:22:14;;;;;;;0.00;0.00;;;;;;;15.90;65.97;98555.31;4947051;28;20226;-63
2023/06/06 00:24:45;;;;;;;0.00;0.00;;;;;;;15.76;67.02;98556.16;4944133;28;20240;-63
2023/06/06 00:27:12;;;;;;;0.00;0.00;;;;;;;15.57;67.68;98557.56;4946984;28;20302;-63
2023/06/06 00:30:05;;;;;;;0.00;0.00;;;;;;;15.44;69.01;98558.19;4944778;28;20243;-63
2023/06/06 00:32:32;;;;;;;0.00;0.00;;;;;;;15.27;70.55;98544.44;4961484;28;20335;-63
2023/06/06 00:35:00;;;;;;;0.00;0.00;;;;;;;15.17;71.81;98547.38;4958619;28;20258;-63
2023/06/06 00:37:28;;;;;;;0.00;0.00;;;;;;;15.08;73.88;98546.63;4945515;29;20236;-63
2023/06/06 00:39:54;;;;;;;0.00;0.00;;;;;;;15.10;75.45;98549.91;4958338;28;20701;-63
2023/06/06 00:42:21;;;;;;;0.00;0.00;;;;;;;15.02;75.65;98548.19;4945311;28;20707;-63
2023/06/06 00:44:47;;;;;;;0.00;0.00;;;;;;;14.99;76.95;98540.66;4958056;28;20648;-63
2023/06/06 00:47:15;;;;;;;0.00;0.00;;;;;;;14.93;77.14;98535.31;4946944;28;20279;-63
2023/06/06 00:49:47;;;;;;;0.00;0.00;;;;;;;14.80;77.07;98539.41;4958426;28;20291;-63
2023/06/06 00:52:17;;;;;;;0.00;0.00;;;;;;;14.75;77.30;98547.81;4945379;28;20231;-63
2023/06/06 00:54:45;;;;;;;0.00;0.00;;;;;;;14.76;77.41;98551.28;4958122;28;20739;-63
2023/06/06 00:57:12;;;;;;;0.00;0.00;;;;;;;14.75;78.32;98549.63;4962434;28;20506;-63
2023/06/06 00:59:47;;;;;;;0.00;0.00;;;;;;;14.71;78.92;98554.41;4946311;28;20231;-63
2023/06/06 01:02:17;;;;;;;0.00;0.00;;;;;;;14.66;79.06;98553.31;4950491;28;20254;-63
2023/06/06 01:04:45;;;;;;;0.00;0.00;;;;;;;14.73;79.43;98551.63;4947623;28;20226;-63
2023/06/06 01:07:16;;;;;;;0.00;0.00;;;;;;;14.71;79.92;98551.78;4950733;28;20227;-63
2023/06/06 01:09:48;;;;;;;0.00;0.00;;;;;;;14.67;79.40;98552.31;4947381;28;20227;-63
2023/06/06 01:12:23;;;;;;;0.00;0.00;;;;;;;14.67;79.70;98550.50;4948480;28;20341;-63
2023/06/06 01:14:56;;;;;;;0.00;0.00;;;;;;;14.66;80.76;98551.47;4939848;28;20272;-63
2023/06/06 01:17:25;;;;;;;0.00;0.00;;;;;;;14.63;80.45;98551.84;4950419;28;20246;-63
2023/06/06 01:19:53;;;;;;;0.00;0.00;;;;;;;14.63;80.65;98551.03;4947298;28;20246;-63
2023/06/06 01:22:22;;;;;;;0.00;0.00;;;;;;;14.71;81.73;98548.38;4964783;28;20239;-63
2023/06/06 01:24:52;;;;;;;0.00;0.00;;;;;;;14.73;81.55;98552.44;4946405;28;20331;-63
2023/06/06 01:27:19;;;;;;;0.00;0.00;;;;;;;14.79;81.64;98561.41;4964065;28;20346;-63
2023/06/06 01:29:45;;;;;;;0.00;0.00;;;;;;;14.85;81.27;98554.63;4961272;28;20230;-63
2023/06/06 01:32:18;;;;;;;0.00;0.00;;;;;;;14.95;81.32;98556.97;4964818;28;20254;-63
2023/06/06 01:34:54;;;;;;;0.00;0.00;;;;;;;14.99;80.83;98552.97;4945915;28;20294;-63
2023/06/06 01:37:32;;;;;;;0.00;0.00;;;;;;;15.10;80.49;98547.28;4964278;28;20723;-63
2023/06/06 01:40:05;;;;;;;0.00;0.00;;;;;;;15.10;80.33;98549.09;4947493;28;20724;-63
2023/06/06 01:42:35;;;;;;;0.00;0.00;;;;;;;15.09;80.11;98543.00;4964205;28;20546;-63
2023/06/06 01:45:02;;;;;;;0.00;0.00;;;;;;;15.12;79.99;98555.00;4946840;28;20255;-63
2023/06/06 01:47:30;;;;;;;0.00;0.00;;;;;;;15.12;80.54;98547.91;4948917;28;20234;-63
2023/06/06 01:49:58;;;;;;;0.00;0.00;;;;;;;15.13;80.74;98548.75;4946704;28;20589;-63
2023/06/06 01:52:28;;;;;;;0.00;0.00;;;;;;;15.11;80.44;98551.53;4949003;28;20317;-63
2023/06/06 01:54:55;;;;;;;0.00;0.00;;;;;;;15.27;81.37;98555.81;4945122;28;20259;-63
2023/06/06 01:57:22;;;;;;;0.00;0.00;;;;;;;15.15;81.00;98554.63;4964408;28;20292;-63
2023/06/06 01:59:49;;;;;;;0.00;0.00;;;;;;;15.07;81.06;98566.03;4961416;28;20237;-63
2023/06/06 02:02:17;;;;;;;0.00;0.00;;;;;;;14.95;82.29;98568.31;4964013;28;20616;-63
2023/06/06 02:04:45;;;;;;;0.00;0.00;;;;;;;14.91;82.41;98573.09;4960519;28;20260;-63
2023/06/06 02:07:12;;;;;;;0.00;0.00;;;;;;;14.76;83.65;98570.47;4963733;28;20249;-63
2023/06/06 02:09:47;;;;;;;0.00;0.00;;;;;;;14.65;83.80;98570.06;4960386;28;20221;-63
2023/06/06 02:12:14;;;;;;;0.00;0.00;;;;;;;14.57;85.02;98569.16;4963659;28;20711;-63
2023/06/06 02:14:45;;;;;;;0.00;0.00;;;;;;;14.49;86.17;98573.63;4934834;28;20235;-63
2023/06/06 02:17:12;;;;;;;0.00;0.00;;;;;;;14.43;86.69;98581.22;4963429;28;20678;-63
2023/06/06 02:19:45;;;;;;;0.00;0.00;;;;;;;14.33;86.75;98572.78;4960421;28;20282;-63
2023/06/06 02:22:11;;;;;;;0.00;0.00;;;;;;;14.26;87.49;98591.06;4946673;28;20243;-63
2023/06/06 02:25:05;;;;;;;0.00;0.00;;;;;;;14.17;88.10;98577.19;4946198;28;20692;-63
2023/06/06 02:27:34;;;;;;;0.00;0.00;;;;;;;14.07;88.24;98579.22;4963377;28;20235;-63
2023/06/06 02:30:03;;;;;;;0.00;0.00;;;;;;;14.00;89.17;98583.53;4960432;28;20239;-63
2023/06/06 02:32:30;;;;;;;0.00;0.00;;;;;;;13.95;90.83;98581.41;4946349;28;20258;-63
2023/06/06 02:34:59;;;;;;;0.00;0.00;;;;;;;13.96;90.07;98587.50;4960501;28;20767;-63
2023/06/06 02:37:26;;;;;;;0.00;0.00;;;;;;;13.92;90.24;98587.00;4947209;28;20297;-63
2023/06/06 02:39:53;;;;;;;0.00;0.00;;;;;;;13.96;90.62;98590.91;4945940;28;20242;-63
2023/06/06 02:42:21;;;;;;;0.00;0.00;;;;;;;14.02;91.62;98595.47;4946200;28;20242;-63
2023/06/06 02:44:48;;;;;;;0.00;0.00;;;;;;;14.08;91.53;98591.34;4944576;28;20789;-63
2023/06/06 02:47:15;;;;;;;0.00;0.00;;;;;;;14.09;91.40;98598.22;4962173;28;20231;-63
2023/06/06 02:49:45;;;;;;;0.00;0.00;;;;;;;14.17;91.63;98594.72;4960067;28;20237;-63
2023/06/06 02:52:13;;;;;;;0.00;0.00;;;;;;;14.24;91.31;98597.47;4963190;28;20231;-63
2023/06/06 02:54:45;;;;;;;0.00;0.00;;;;;;;14.32;90.39;98592.16;4935627;28;20325;-63
2023/06/06 02:57:12;;;;;;;0.00;0.00;;;;;;;14.37;90.25;98586.38;4948556;28;20334;-63
2023/06/06 03:00:08;;;;;;;0.00;0.00;;;;;;;14.31;89.95;98590.50;4945929;28;20261;-63
2023/06/06 03:02:35;;;;;;;0.00;0.00;;;;;;;14.35;90.78;98599.66;4962713;28;20230;-63
2023/06/06 03:05:02;;;;;;;0.00;0.00;;;;;;;14.40;90.54;98588.66;4945345;28;20226;-63
2023/06/06 03:07:30;;;;;;;0.00;0.00;;;;;;;14.47;90.31;98595.63;4963063;28;20238;-63
2023/06/06 03:09:56;;;;;;;0.00;0.00;;;;;;;14.38;90.25;98596.69;4945289;28;20243;-63
2023/06/06 03:12:29;;;;;;;0.00;0.00;;;;;;;14.36;90.65;98600.50;4946658;28;20229;-63
2023/06/06 03:14:55;;;;;;;0.00;0.00;;;;;;;14.38;90.62;98601.16;4960122;28;20236;-63
2023/06/06 03:17:24;;;;;;;0.00;0.00;;;;;;;14.39;90.36;98602.78;4948288;28;20234;-63
2023/06/06 03:19:51;;;;;;;0.00;0.00;;;;;;;14.36;90.44;98606.56;4941573;28;20699;-63
2023/06/06 03:22:18;;;;;;;0.00;0.00;;;;;;;14.35;90.77;98609.38;4961826;28;20710;-63
2023/06/06 03:24:46;;;;;;;0.00;0.00;;;;;;;14.31;90.84;98601.84;4958482;28;20710;-63
2023/06/06 03:27:14;;;;;;;0.00;0.00;;;;;;;14.24;90.95;98610.59;4946576;28;20235;-63
2023/06/06 03:29:45;;;;;;;0.00;0.00;;;;;;;14.14;91.44;98609.03;4959086;28;20233;-63
2023/06/06 03:32:12;;;;;;;0.00;0.00;;;;;;;14.10;92.10;98610.38;5168363;23;20702;-62
2023/06/06 03:35:05;;;;;;;0.00;0.00;;;;;;;14.11;93.16;98605.91;4952181;28;20660;-62
2023/06/06 03:37:32;;;;;;;0.00;0.00;;;;;;;14.05;93.76;98610.06;4955674;28;20245;-62
2023/06/06 03:40:00;;;;;;;0.00;0.00;;;;;;;13.95;94.12;98615.53;4953631;28;20663;-62
2023/06/06 03:42:28;;;;;;;0.00;0.00;;;;;;;14.02;93.54;98623.53;4947135;28;20583;-62
2023/06/06 03:44:55;;;;;;;0.00;0.00;;;;;;;13.96;93.54;98617.16;4937020;28;20241;-62
2023/06/06 03:47:22;;;;;;;0.00;0.00;;;;;;;13.89;93.58;98610.97;4944239;28;20255;-62
2023/06/06 03:49:49;;;;;;;0.00;0.00;;;;;;;13.87;93.93;98612.94;4937285;28;20266;-62
2023/06/06 03:52:17;;;;;;;0.00;0.00;;;;;;;13.84;94.37;98624.63;4953104;28;20329;-62
2023/06/06 03:54:47;;;;;;;0.00;0.00;;;;;;;13.83;94.26;98624.78;4942447;28;20234;-62
2023/06/06 03:57:13;;;;;;;0.00;0.00;;;;;;;13.84;94.62;98619.38;4956874;28;20374;-62
2023/06/06 03:59:46;;;;;;;0.00;0.00;;;;;;;13.84;94.64;98615.91;4951024;28;20233;-62
2023/06/06 04:02:12;;;;;;;0.00;0.00;;;;;;;13.90;94.20;98619.66;4937717;28;20740;-62
2023/06/06 04:04:45;;;;;;;0.00;0.00;;;;;;;13.91;94.46;98616.84;4937118;28;20234;-62
2023/06/06 04:07:12;;;;;;;0.00;0.00;;;;;;;13.91;94.32;98626.56;4937646;28;20244;-62
2023/06/06 04:09:46;;;;;;;0.00;0.00;;;;;;;14.04;94.47;98626.81;4948240;28;20238;-62
2023/06/06 04:12:13;;;;;;;0.00;0.00;;;;;;;14.08;94.49;98628.09;4944207;28;20705;-62
2023/06/06 04:14:47;;;;;;;0.00;0.00;;;;;;;14.12;93.99;98625.94;4952324;28;20226;-62
2023/06/06 04:17:13;;;;;;;0.00;0.00;;;;;;;14.13;93.46;98627.56;4944380;28;20326;-62
2023/06/06 04:19:45;;;;;;;0.00;0.00;;;;;;;14.18;93.93;98630.47;4941444;28;20259;-62
2023/06/06 04:22:13;;;;;;;0.00;0.00;;;;;;;14.25;92.93;98630.63;4944144;28;20704;-62
2023/06/06 04:24:47;;;;;;;0.00;0.00;;;;;;;14.25;92.69;98634.06;4951952;28;20223;-62
2023/06/06 04:27:16;;;;;;;0.00;0.00;;;;;;;14.30;92.49;98623.84;4943735;28;20234;-62
2023/06/06 04:29:50;;;;;;;0.00;0.00;;;;;;;14.34;92.82;98637.44;4941575;28;20235;-62
2023/06/06 04:32:19;;;;;;;0.00;0.00;;;;;;;14.40;92.58;98636.72;4954156;28;20235;-62
2023/06/06 04:34:51;;;;;;;0.00;0.00;;;;;;;14.43;91.91;98638.19;4953630;28;20263;-62
2023/06/06 04:37:19;;;;;;;0.00;0.00;;;;;;;14.42;91.76;98634.75;4937477;28;20232;-62
2023/06/06 04:39:52;;;;;;;0.00;0.00;;;;;;;14.46;91.63;98630.78;4938319;29;20636;-62
2023/06/06 04:42:21;;;;;;;0.00;0.00;;;;;;;14.49;93.42;98642.75;4943877;28;20267;-62
2023/06/06 04:44:49;;;;;;;0.00;0.00;;;;;;;14.48;93.09;98641.13;4935500;28;20229;-62
2023/06/06 04:47:19;;;;;;;0.00;0.00;;;;;;;14.52;92.92;98638.94;4933805;28;20314;-62
2023/06/06 04:49:47;;;;;;;0.00;0.00;;;;;;;14.56;92.44;98642.84;4934444;28;20286;-62
2023/06/06 04:52:16;;;;;;;0.00;0.00;;;;;;;14.59;91.80;98642.50;4943956;28;20582;-62
2023/06/06 04:54:45;;;;;;;0.00;0.00;;;;;;;14.67;91.47;98642.44;4933741;28;20240;-62
2023/06/06 04:57:15;;;;;;;0.00;0.00;;;;;;;14.71;92.76;98635.06;4943979;28;20234;-62
2023/06/06 04:59:50;;;;;;;0.00;0.00;;;;;;;14.74;92.15;98637.34;4935926;28;20227;-63
2023/06/06 05:02:18;;;;;;;0.00;0.00;;;;;;;14.79;91.90;98637.63;4940230;28;20227;-62
2023/06/06 05:04:45;;;;;;;0.00;0.00;;;;;;;14.88;91.54;98641.78;4936765;28;20240;-62
2023/06/06 05:07:12;;;;;;;0.00;0.00;;;;;;;14.96;91.68;98647.97;4934490;28;20330;-62
2023/06/06 05:10:04;;;;;;;0.00;0.00;;;;;;;15.07;91.83;98654.63;4935296;29;20234;-62
2023/06/06 05:12:32;;;;;;;0.00;0.00;;;;;;;15.16;90.89;98651.72;4939266;28;20294;-62
2023/06/06 05:14:59;;;;;;;0.00;0.00;;;;;;;15.23;90.48;98654.44;4935240;28;20286;-62
2023/06/06 05:17:27;;;;;;;0.00;0.00;;;;;;;15.32;89.84;98655.16;4937729;28;20329;-62
2023/06/06 05:19:55;;;;;;;0.00;0.00;;;;;;;15.37;89.22;98655.44;4935788;28;20238;-62
2023/06/06 05:22:21;;;;;;;0.00;0.00;;;;;;;15.42;87.13;98657.50;4939355;28;20746;-62
2023/06/06 05:24:48;;;;;;;0.00;0.00;;;;;;;15.41;85.09;98656.72;4933633;28;20231;-62
2023/06/06 05:27:15;;;;;;;0.00;0.00;;;;;;;15.44;84.89;98651.09;4938987;28;20228;-62
2023/06/06 05:29:46;;;;;;;0.00;0.00;;;;;;;15.45;85.74;98655.34;4937006;28;20830;-62
2023/06/06 05:32:13;;;;;;;0.00;0.00;;;;;;;15.42;87.59;98660.97;4936934;28;20604;-62
2023/06/06 05:34:45;;;;;;;0.00;0.00;;;;;;;15.49;88.24;98658.44;4931882;28;20217;-62
2023/06/06 05:37:12;;;;;;;0.00;0.00;;;;;;;15.53;88.35;98658.91;4936780;29;20232;-62
2023/06/06 05:40:05;;;;;;;0.00;0.00;;;;;;;15.68;87.06;98659.72;4935569;28;20239;-62
2023/06/06 05:42:32;;;;;;;0.00;0.00;;;;;;;15.83;85.71;98657.03;4938969;28;20243;-62
2023/06/06 05:45:00;;;;;;;0.00;0.00;;;;;;;16.06;86.23;98669.28;4937714;28;20244;-62
2023/06/06 05:47:26;;;;;;;0.00;0.00;;;;;;;16.27;85.27;98657.97;4941668;28;20239;-62
2023/06/06 05:49:53;;;;;;;0.00;0.00;;;;;;;16.39;86.44;98666.19;4936509;28;20740;-62
2023/06/06 05:52:20;;;;;;;0.00;0.00;;;;;;;16.56;84.54;98665.94;4941502;28;20740;-63
2023/06/06 05:54:47;;;;;;;0.00;0.00;;;;;;;16.72;82.86;98670.13;4954799;28;20225;-62
2023/06/06 05:57:21;;;;;;;0.00;0.00;;;;;;;16.82;83.06;98675.91;4938273;28;20788;-62
2023/06/06 05:59:47;;;;;;;0.00;0.00;;;;;;;17.01;82.68;98673.63;4937493;28;20250;-62
2023/06/06 06:02:16;;;;;;;0.00;0.00;;;;;;;17.10;81.55;98673.31;4940733;29;20320;-62
2023/06/06 06:04:52;;;;;;;0.00;0.00;;;;;;;17.29;78.75;98672.81;4938589;28;20282;-62
2023/06/06 06:07:19;;;;;;;0.00;0.00;;;;;;;17.22;71.88;98686.78;4943577;28;20323;-62
2023/06/06 06:09:46;;;;;;;0.00;0.00;;;;;;;17.31;69.99;98684.81;4938669;28;20326;-62
2023/06/06 06:12:13;;;;;;;0.00;0.00;;;;;;;17.23;69.53;98679.69;4943004;28;20305;-63
2023/06/06 06:14:45;;;;;;;0.00;0.00;;;;;;;17.04;70.54;98678.53;4939158;28;20743;-63
2023/06/06 06:17:12;;;;;;;0.00;0.00;;;;;;;17.00;70.56;98677.28;4941299;28;20224;-63
2023/06/06 06:19:43;;;;;;;0.00;0.00;;;;;;;16.91;70.39;98676.56;4939121;28;20308;-63
2023/06/06 06:22:10;;;;;;;0.00;0.00;;;;;;;17.11;70.93;98689.94;4940778;28;20240;-63
2023/06/06 06:24:36;;;;;;;0.00;0.00;;;;;;;17.43;69.89;98679.81;4941661;28;20233;-63
2023/06/06 06:27:03;;;;;;;0.00;0.00;;;;;;;17.71;68.79;98689.50;4936247;28;20288;-62
2023/06/06 06:29:30;;;;;;;0.00;0.00;;;;;;;18.04;67.84;98688.84;4940989;28;20227;-62
2023/06/06 06:31:57;;;;;;;0.00;0.00;;;;;;;18.37;65.45;98695.25;4938953;28;23362;-62
2023/06/06 06:34:23;;;;;;;0.00;0.00;;;;;;;18.20;66.18;98698.25;4940426;28;20231;-62
2023/06/06 06:36:51;;;;;;;0.00;0.00;;;;;;;18.31;66.60;98698.69;4937584;28;20230;-62
2023/06/06 06:39:18;;;;;;;0.00;0.00;;;;;;;18.58;64.86;98700.34;4939377;28;20940;-62
2023/06/06 06:41:45;;;;;;;0.00;0.00;;;;;;;18.78;64.05;98690.84;4935683;28;20237;-62
2023/06/06 06:44:12;;;;;;;0.00;0.00;;;;;;;18.99;64.46;98703.06;4942364;28;20696;-62
2023/06/06 06:46:39;;;;;;;0.00;0.00;;;;;;;19.43;61.92;98698.13;4939607;28;20303;-62
2023/06/06 06:49:15;;;;;;;0.00;0.00;;;;;;;19.21;62.27;98705.50;4941434;28;20244;-62
2023/06/06 06:51:42;;;;;;;0.00;0.00;;;;;;;19.55;60.31;98704.41;4935240;28;20237;-62
2023/06/06 06:54:12;;;;;;;0.00;0.00;;;;;;;19.35;61.55;98708.94;4940046;28;20248;-62
2023/06/06 06:56:41;;;;;;;0.00;0.00;;;;;;;19.45;61.99;98710.16;4936451;28;20644;-62
2023/06/06 06:59:08;;;;;;;0.00;0.00;;;;;;;19.18;62.31;98704.88;4937106;29;20234;-62
2023/06/06 07:01:37;;;;;;;0.00;0.00;;;;;;;18.91;65.13;98714.63;4939385;28;20237;-62
2023/06/06 07:04:05;;;;;;;0.00;0.00;;;;;;;18.92;66.08;98715.44;4936553;28;20232;-62
2023/06/06 07:06:33;;;;;;;0.00;0.00;;;;;;;19.00;66.94;98713.47;4938840;28;20230;-62
2023/06/06 07:09:00;;;;;;;0.00;0.00;;;;;;;19.03;66.52;98707.75;4936794;28;21117;-62
2023/06/06 07:11:28;;;;;;;0.00;0.00;;;;;;;19.10;66.20;98713.03;4939461;28;20301;-62
2023/06/06 07:13:55;;;;;;;0.00;0.00;;;;;;;19.30;67.02;98715.66;4937482;28;20319;-62
2023/06/06 07:16:23;;;;;;;0.00;0.00;;;;;;;19.49;64.72;98713.19;4954529;28;20239;-62
2023/06/06 07:18:51;;;;;;;0.00;0.00;;;;;;;19.36;65.29;98724.63;4937923;28;20243;-63
2023/06/06 07:21:19;;;;;;;0.00;0.00;;;;;;;19.38;66.63;98725.22;4939545;28;20255;-63
2023/06/06 07:23:47;;;;;;;0.00;0.00;;;;;;;19.73;66.54;98721.50;4939166;28;20590;-63
2023/06/06 07:26:16;;;;;;;0.00;0.00;;;;;;;20.03;66.75;98728.97;4938587;28;20294;-63
2023/06/06 07:28:45;;;;;;;0.00;0.00;;;;;;;20.01;65.94;98723.84;4937639;28;20285;-63
2023/06/06 07:31:12;;;;;;;0.00;0.00;;;;;;;19.98;66.09;98726.13;4940148;28;20237;-63
2023/06/06 07:33:38;;;;;;;0.00;0.00;;;;;;;19.82;66.33;98719.41;4936575;28;20227;-63
2023/06/06 07:36:06;;;;;;;0.00;0.00;;;;;;;20.06;66.37;98718.75;4941621;28;20671;-63
2023/06/06 07:38:33;;;;;;;0.00;0.00;;;;;;;20.05;67.67;98721.63;4940315;28;20790;-63
2023/06/06 07:40:59;;;;;;;0.00;0.00;;;;;;;20.02;67.04;98724.69;4937089;28;20247;-63
2023/06/06 07:43:26;;;;;;;0.00;0.00;;;;;;;20.24;65.81;98711.94;4938858;28;20247;-63
2023/06/06 07:45:54;;;;;;;0.00;0.00;;;;;;;20.64;63.86;98713.53;4938738;28;20232;-63
2023/06/06 07:48:21;;;;;;;0.00;0.00;;;;;;;21.20;62.84;98705.78;4940346;28;20217;-63
2023/06/06 07:50:48;;;;;;;0.00;0.00;;;;;;;21.49;60.04;98708.75;4936858;28;20222;-63
2023/06/06 07:53:14;;;;;;;0.00;0.00;;;;;;;21.78;58.98;98717.06;4939935;28;20559;-63
2023/06/06 07:55:41;;;;;;;0.00;0.00;;;;;;;21.94;58.79;98711.16;4939564;28;20744;-63
2023/06/06 07:58:10;;;;;;;0.00;0.00;;;;;;;22.18;58.11;98710.44;4939145;28;20657;-63
2023/06/06 08:00:36;;;;;;;0.00;0.00;;;;;;;22.60;55.35;98715.00;4937730;28;20319;-63
2023/06/06 08:03:04;;;;;;;0.00;0.00;;;;;;;22.86;52.06;98689.84;4936610;28;20234;-63
2023/06/06 08:05:34;;;;;;;0.00;0.00;;;;;;;22.81;53.38;98709.16;4937028;28;20229;-63
2023/06/06 08:08:00;;;;;;;0.00;0.00;;;;;;;23.28;46.04;98713.75;4934732;28;20649;-63
2023/06/06 08:10:27;;;;;;;0.00;0.00;;;;;;;23.58;39.16;98709.31;4937258;28;20229;-63
2023/06/06 08:12:54;;;;;;;0.00;0.00;;;;;;;23.86;40.14;98711.22;4936468;28;20751;-63
2023/06/06 08:15:21;;;;;;;0.00;0.00;;;;;;;23.71;34.57;98716.25;4940108;28;20225;-63
2023/06/06 08:17:48;;;;;;;0.00;0.00;;;;;;;23.85;35.74;98714.13;4936928;28;20223;-63
2023/06/06 08:20:16;;;;;;;0.00;0.00;;;;;;;24.21;36.80;98722.03;4939949;28;20710;-63
2023/06/06 08:22:49;;;;;;;0.00;0.00;;;;;;;24.35;35.44;98720.69;4935384;28;20231;-63
2023/06/06 08:25:16;;;;;;;0.00;0.00;;;;;;;24.90;34.68;98718.47;4940460;28;20729;-63
2023/06/06 08:27:42;;;;;;;0.00;0.00;;;;;;;25.02;32.23;98721.03;4935030;28;20246;-63
2023/06/06 08:30:10;;;;;;;0.00;0.00;;;;;;;24.81;34.22;98719.91;4940399;28;20277;-63
2023/06/06 08:32:37;;;;;;;0.00;0.00;;;;;;;24.91;33.11;98718.22;4940345;28;20297;-63
2023/06/06 08:35:05;;;;;;;0.00;0.00;;;;;;;24.90;33.03;98707.78;4933632;28;20293;-63
2023/06/06 08:37:33;;;;;;;0.00;0.00;;;;;;;25.02;33.35;98716.50;4937127;28;20237;-63
2023/06/06 08:40:00;;;;;;;0.00;0.00;;;;;;;24.63;33.47;98716.38;4934790;28;20240;-63
2023/06/06 08:42:29;;;;;;;0.00;0.00;;;;;;;24.45;33.25;98718.22;4933472;28;20760;-63
2023/06/06 08:44:57;;;;;;;0.00;0.00;;;;;;;24.83;33.50;98717.81;4935310;28;20246;-63
2023/06/06 08:47:27;;;;;;;0.00;0.00;;;;;;;24.85;32.28;98716.50;4938525;28;20289;-63
2023/06/06 08:49:54;;;;;;;0.00;0.00;;;;;;;25.12;32.88;98717.72;4935773;28;20238;-63
2023/06/06 08:52:21;;;;;;;0.00;0.00;;;;;;;25.42;34.23;98716.53;4939168;28;20227;-63
2023/06/06 08:54:50;;;;;;;0.00;0.00;;;;;;;25.33;33.29;98721.50;4939902;28;20223;-63
2023/06/06 08:57:20;;;;;;;0.00;0.00;;;;;;;25.04;31.92;98721.59;4938084;28;20303;-63
2023/06/06 08:59:48;;;;;;;0.00;0.00;;;;;;;24.35;31.57;98726.03;4934448;28;20231;-63
2023/06/06 09:02:15;;;;;;;7.20;2.90;;;;;;;24.19;32.20;98724.94;4940945;28;20231;-63
2023/06/06 09:04:45;;;;;;;5.77;2.83;;;;;;;24.21;32.15;98720.19;4934352;28;20808;-63
2023/06/06 09:07:14;;;;;;;4.00;2.67;;;;;;;24.31;31.73;98725.72;4940647;28;20638;-63
2023/06/06 09:09:48;;;;;;;4.60;3.17;;;;;;;24.44;32.44;98726.44;4932515;28;20437;-63
2023/06/06 09:12:16;;;;;;;7.27;2.90;;;;;;;24.37;32.09;98731.16;4939276;28;20254;-63
2023/06/06 09:14:45;;;;;;;5.10;2.90;;;;;;;24.53;32.45;98718.88;4933036;28;20570;-63
2023/06/06 09:17:16;;;;;;;4.50;2.70;;;;;;;24.38;32.55;98727.44;4940338;28;20229;-63
2023/06/06 09:19:46;;;;;;;3.63;3.00;;;;;;;24.35;33.26;98731.38;4935654;28;20682;-63
2023/06/06 09:22:12;;;;;;;5.57;2.87;;;;;;;24.52;34.37;98725.25;4943780;28;20639;-63
2023/06/06 09:24:45;;;;;;;4.30;3.20;;;;;;;24.42;33.24;98728.53;4940516;28;20622;-63
2023/06/06 09:30:19;;;;;;;5.10;2.70;;;;;;;24.55;34.81;98725.59;5070381;27;21142;-63
2023/06/06 09:32:46;;;;;;;5.60;2.93;;;;;;;24.62;33.25;98726.25;5051660;28;20217;-63
2023/06/06 09:35:14;;;;;;;8.13;2.87;;;;;;;24.52;32.63;98722.59;5069352;28;20229;-63
2023/06/06 09:37:41;;;;;;;4.53;3.13;;;;;;;24.58;32.73;98718.97;5050588;28;20276;-63
2023/06/06 09:40:12;;;;;;;5.53;3.10;;;;;;;24.69;33.04;98717.28;5051372;28;20229;-63
2023/06/06 09:42:40;;;;;;;6.50;2.90;;;;;;;24.73;33.10;98724.59;5050139;28;20222;-63
2023/06/06 09:45:14;;;;;;;6.80;3.77;;;;;;;24.63;32.51;98724.41;5052527;28;20232;-63
2023/06/06 09:47:41;;;;;;;5.07;3.10;;;;;;;24.61;32.26;98721.94;5049971;28;20222;-63
2023/06/06 09:50:09;;;;;;;5.03;2.83;;;;;;;24.54;32.30;98726.63;5053228;28;20230;-63
2023/06/06 09:52:35;;;;;;;4.00;2.77;;;;;;;24.47;32.81;98718.78;5054726;28;20257;-63
2023/06/06 09:55:05;;;;;;;3.83;2.90;;;;;;;24.41;33.35;98713.59;5048479;28;20227;-63
2023/06/06 09:57:36;;;;;;;0.00;0.00;;;;;;;24.27;32.14;98707.75;5053312;28;20282;-63
2023/06/06 10:00:10;;;;;;;0.00;0.00;;;;;;;24.54;31.75;98710.63;5028860;28;20674;-63
2023/06/06 10:02:43;;;;;;;0.00;0.00;;;;;;;24.87;32.09;98716.28;5029808;28;20305;-63
2023/06/06 10:05:14;;;;;;;0.00;0.00;;;;;;;25.01;32.12;98706.06;5034021;28;20228;-63
2023/06/06 10:07:44;;;;;;;0.00;0.00;;;;;;;25.27;31.94;98712.59;5032218;28;20212;-63
2023/06/06 10:10:12;;;;;;;0.00;0.00;;;;;;;25.13;32.65;98701.44;5030517;28;20937;-63
2023/06/06 10:12:40;;;;;;;0.00;0.00;;;;;;;24.89;31.65;98696.28;5027229;28;20254;-63
2023/06/06 10:15:09;;;;;;;0.00;0.00;;;;;;;24.83;32.84;98694.59;5033450;28;20250;-63
2023/06/06 10:17:37;;;;;;;0.00;0.00;;;;;;;24.66;32.34;98696.41;5032920;28;20251;-63
2023/06/06 10:20:07;;;;;;;0.00;0.00;;;;;;;24.52;32.92;98712.72;5027974;28;20234;-63
2023/06/06 10:22:34;;;;;;;0.00;0.00;;;;;;;24.86;32.56;98701.31;5031457;28;20232;-63
2023/06/06 10:25:02;;;;;;;0.00;0.00;;;;;;;24.99;32.68;98702.84;5027764;28;20695;-63
2023/06/06 10:27:39;;;;;;;0.00;0.00;;;;;;;24.94;32.48;98702.75;5030356;28;20228;-63
2023/06/06 10:30:14;;;;;;;0.00;0.00;;;;;;;25.24;31.48;98698.94;5040257;28;20247;-63
2023/06/06 10:32:48;;;;;;;0.00;0.00;;;;;;;25.40;31.72;98698.09;5054463;28;20299;-63
2023/06/06 10:35:18;;;;;;;0.00;0.00;;;;;;;25.49;30.88;98696.63;5051601;28;20272;-63
2023/06/06 10:38:01;;;;;;;0.00;0.00;;;;;;;25.28;31.14;98703.53;5047053;28;20285;-63
2023/06/06 10:40:27;;;;;;;0.00;0.00;;;;;;;25.29;32.18;98701.69;5041500;28;20231;-63
2023/06/06 10:42:54;;;;;;;0.00;0.00;;;;;;;25.16;31.70;98708.16;5036596;28;20245;-63
2023/06/06 10:45:41;;;;;;;0.00;0.00;;;;;;;24.67;32.11;98706.03;5038352;28;20681;-63
2023/06/06 10:48:08;;;;;;;0.00;0.00;;;;;;;24.88;32.58;98699.22;5036642;28;20234;-63
2023/06/06 10:50:36;;;;;;;0.00;0.00;;;;;;;24.82;32.75;98700.19;5040798;28;20227;-63
2023/06/06 10:53:06;;;;;;;0.00;0.00;;;;;;;24.91;30.98;98699.53;5019002;28;20317;-63
2023/06/06 10:55:44;;;;;;;0.00;0.00;;;;;;;24.95;31.33;98699.03;5020111;28;20317;-63
2023/06/06 10:58:17;;;;;;;0.00;0.00;;;;;;;24.38;32.93;98703.44;5034400;28;20248;-63
2023/06/06 11:00:46;;;;;;;0.00;0.00;;;;;;;24.40;32.85;98693.28;5036167;28;20226;-63
2023/06/06 11:03:14;;;;;;;0.00;0.00;;;;;;;24.25;33.22;98681.31;5040800;28;20238;-62
2023/06/06 11:06:07;;;;;;;0.00;0.00;;;;;;;24.34;33.58;98689.75;5031430;28;20228;-62
2023/06/06 11:08:34;;;;;;;0.00;0.00;;;;;;;24.63;34.12;98689.69;5037209;28;20287;-62
2023/06/06 11:11:18;;;;;;;0.00;0.00;;;;;;;25.00;32.11;98691.09;5033691;28;20693;-63
2023/06/06 11:13:51;;;;;;;0.00;0.00;;;;;;;25.54;32.83;98679.84;5033869;28;20222;-63
2023/06/06 11:16:18;;;;;;;0.00;0.00;;;;;;;25.99;30.75;98685.16;5038722;28;20635;-63
2023/06/06 11:18:44;;;;;;;0.00;0.00;;;;;;;25.75;30.24;98693.47;5035987;28;20239;-63
2023/06/06 11:21:12;;;;;;;0.00;0.00;;;;;;;25.48;30.47;98684.31;5037123;28;20301;-63
2023/06/06 11:23:40;;;;;;;0.00;0.00;;;;;;;25.15;30.34;98680.66;5031667;28;20235;-63
2023/06/06 11:26:09;;;;;;;0.00;0.00;;;;;;;24.39;31.53;98692.50;5035555;28;20327;-63
2023/06/06 11:28:37;;;;;;;0.00;0.00;;;;;;;24.40;31.52;98690.63;5030676;28;20248;-63
2023/06/06 11:31:05;;;;;;;0.00;0.00;;;;;;;24.31;33.08;98684.88;5033195;28;20234;-63
2023/06/06 11:33:32;;;;;;;0.00;0.00;;;;;;;24.11;32.99;98680.00;5038014;28;20285;-63
2023/06/06 11:36:00;;;;;;;0.00;0.00;;;;;;;24.29;32.06;98686.97;5032600;28;20588;-63
2023/06/06 11:38:28;;;;;;;0.00;0.00;;;;;;;24.75;31.67;98681.63;5036857;28;20239;-63
2023/06/06 11:40:55;;;;;;;0.00;0.00;;;;;;;24.82;30.51;98686.84;5035550;28;20224;-63
2023/06/06 11:43:21;;;;;;;0.00;0.00;;;;;;;25.08;31.66;98688.03;5037187;28;20235;-63
2023/06/06 11:46:02;;;;;;;0.00;0.00;;;;;;;25.51;30.20;98685.69;5036170;28;20281;-63
2023/06/06 11:48:29;;;;;;;0.00;0.00;;;;;;;25.91;29.34;98681.91;5035239;28;20213;-63